Time;durP1;ratioP1;P1;durP2;ratioP2;P2;SDS_P1;SDS_P2;PMS_P1;PMS_P2;Temp;Humidity;BMP_temperature;BMP_pressure;BME280_temperature;BME280_humidity;BME280_pressure;Samples;Min_cycle;Max_cycle;Signal;HPM_P1;HPM_P2
2024/01/26 00:01:39;;;;;;;23.58;7.78;;;;;;;10.67;100.00;101624.91;4999325;28;20038;-73
2024/01/26 00:04:04;;;;;;;22.73;7.75;;;;;;;10.67;100.00;101616.56;5035694;28;20029;-73
2024/01/26 00:06:30;;;;;;;28.73;8.07;;;;;;;10.65;100.00;101616.03;5017999;28;20087;-73
2024/01/26 00:08:55;;;;;;;26.13;8.68;;;;;;;10.66;100.00;101606.56;5016986;28;20026;-73
2024/01/26 00:11:21;;;;;;;24.98;7.65;;;;;;;10.64;100.00;101604.09;5034436;28;20029;-73
2024/01/26 00:13:46;;;;;;;32.53;8.30;;;;;;;10.65;100.00;101599.34;5034423;28;20057;-73
2024/01/26 00:16:12;;;;;;;31.10;8.85;;;;;;;10.63;100.00;101604.34;5017858;28;20029;-73
2024/01/26 00:18:39;;;;;;;23.70;8.48;;;;;;;10.64;100.00;101606.00;4984903;28;20497;-73
2024/01/26 00:21:04;;;;;;;27.50;7.20;;;;;;;10.62;100.00;101583.22;5018114;28;20483;-73
2024/01/26 00:23:30;;;;;;;29.60;7.10;;;;;;;10.64;100.00;101589.31;5034173;28;20076;-73
2024/01/26 00:25:57;;;;;;;29.73;7.20;;;;;;;10.61;100.00;101581.53;5034139;28;20030;-73
2024/01/26 00:28:22;;;;;;;31.83;7.70;;;;;;;10.59;100.00;101581.81;5018129;28;20131;-73
2024/01/26 00:30:48;;;;;;;32.75;8.02;;;;;;;10.60;100.00;101582.66;5034046;28;20029;-74
2024/01/26 00:33:13;;;;;;;30.77;6.70;;;;;;;10.58;100.00;101582.06;5030936;28;20034;-73
2024/01/26 00:35:39;;;;;;;29.77;8.15;;;;;;;10.58;100.00;101587.63;5017685;28;20029;-73
2024/01/26 00:38:05;;;;;;;31.67;7.35;;;;;;;10.57;100.00;101592.34;5034256;28;20068;-73
2024/01/26 00:40:30;;;;;;;22.35;6.80;;;;;;;10.56;100.00;101589.81;5041416;28;20504;-73
2024/01/26 00:42:56;;;;;;;29.45;7.05;;;;;;;10.55;100.00;101589.00;5003346;28;20113;-73
2024/01/26 00:45:21;;;;;;;25.40;7.35;;;;;;;10.55;100.00;101585.38;5025628;28;20022;-73
2024/01/26 00:47:47;;;;;;;29.67;7.20;;;;;;;10.55;100.00;101583.44;5029090;28;20029;-73
2024/01/26 00:50:12;;;;;;;24.15;6.63;;;;;;;10.54;100.00;101584.56;5035293;28;20371;-73
2024/01/26 00:52:38;;;;;;;27.55;7.03;;;;;;;10.52;100.00;101573.69;5035033;28;20026;-73
2024/01/26 00:55:03;;;;;;;26.00;7.32;;;;;;;10.54;100.00;101575.41;5017280;28;20094;-73
2024/01/26 00:57:29;;;;;;;24.98;6.85;;;;;;;10.52;100.00;101567.31;5001071;28;20035;-73
2024/01/26 00:59:55;;;;;;;29.13;7.57;;;;;;;10.53;100.00;101574.56;5030456;28;20037;-73
2024/01/26 01:02:21;;;;;;;27.90;7.30;;;;;;;10.49;100.00;101568.69;5033894;28;20029;-73
2024/01/26 01:04:46;;;;;;;28.85;6.97;;;;;;;10.48;100.00;101569.81;5033820;28;20032;-73
2024/01/26 01:07:13;;;;;;;19.90;6.45;;;;;;;10.45;100.00;101564.78;5033804;28;20021;-73
2024/01/26 01:09:40;;;;;;;25.98;7.30;;;;;;;10.41;100.00;101569.19;5037663;28;20033;-73
2024/01/26 01:12:06;;;;;;;25.83;6.55;;;;;;;10.42;100.00;101557.00;5037184;28;20044;-73
2024/01/26 01:14:32;;;;;;;28.60;6.78;;;;;;;10.40;100.00;101559.19;5002191;28;20501;-73
2024/01/26 01:16:58;;;;;;;27.70;7.25;;;;;;;10.41;100.00;101555.28;5020994;28;20034;-73
2024/01/26 01:19:23;;;;;;;28.23;6.50;;;;;;;10.41;100.00;101560.84;5004797;28;20048;-73
2024/01/26 01:21:48;;;;;;;28.70;7.38;;;;;;;10.39;100.00;101557.53;5037436;28;20465;-73
2024/01/26 01:24:14;;;;;;;30.13;6.70;;;;;;;10.38;100.00;101547.50;5020511;28;20406;-74
2024/01/26 01:26:39;;;;;;;27.92;7.32;;;;;;;10.37;100.00;101548.63;5020996;28;20398;-74
2024/01/26 01:29:06;;;;;;;26.80;7.13;;;;;;;10.39;100.00;101562.22;5004352;28;20095;-73
2024/01/26 01:31:32;;;;;;;30.02;7.38;;;;;;;10.40;100.00;101536.16;5020328;28;20029;-73
2024/01/26 01:33:57;;;;;;;34.25;7.78;;;;;;;10.40;100.00;101542.53;5020870;28;20036;-73
2024/01/26 01:36:23;;;;;;;31.48;7.97;;;;;;;10.39;100.00;101546.44;5038320;28;20159;-73
2024/01/26 01:38:48;;;;;;;28.70;6.88;;;;;;;10.41;100.00;101544.19;5036933;28;20025;-73
2024/01/26 01:41:14;;;;;;;29.75;7.43;;;;;;;10.42;100.00;101551.44;5045627;28;20033;-73
2024/01/26 01:43:40;;;;;;;25.50;7.50;;;;;;;10.41;100.00;101554.47;5025534;28;20029;-73
2024/01/26 01:46:05;;;;;;;31.52;7.53;;;;;;;10.43;100.00;101560.59;5022792;28;20032;-73
2024/01/26 01:48:31;;;;;;;29.88;7.78;;;;;;;10.43;100.00;101563.38;5037234;28;20470;-73
2024/01/26 01:50:56;;;;;;;27.40;7.35;;;;;;;10.43;100.00;101569.75;5036380;28;20095;-73
2024/01/26 01:53:22;;;;;;;25.05;7.10;;;;;;;10.44;100.00;101565.88;5039168;28;20021;-73
2024/01/26 01:55:47;;;;;;;31.13;7.47;;;;;;;10.45;100.00;101566.72;5003691;28;20434;-73
2024/01/26 01:58:13;;;;;;;29.40;7.40;;;;;;;10.46;100.00;101563.66;5033449;28;20022;-73
2024/01/26 02:00:41;;;;;;;24.58;7.07;;;;;;;10.45;100.00;101544.50;5036416;28;20043;-73
2024/01/26 02:03:06;;;;;;;27.88;7.40;;;;;;;10.46;100.00;101548.94;5036669;28;20441;-73
2024/01/26 02:05:33;;;;;;;32.78;7.50;;;;;;;10.47;100.00;101543.16;5020108;28;20033;-73
2024/01/26 02:07:59;;;;;;;29.23;7.22;;;;;;;10.45;100.00;101539.78;5037568;28;20030;-73
2024/01/26 02:10:24;;;;;;;34.63;8.40;;;;;;;10.48;100.00;101541.19;5002286;28;20038;-73
2024/01/26 02:12:50;;;;;;;28.95;7.00;;;;;;;10.49;100.00;101545.63;4996249;28;20375;-73
2024/01/26 02:15:15;;;;;;;32.67;7.60;;;;;;;10.50;100.00;101541.75;5003557;28;20052;-73
2024/01/26 02:17:41;;;;;;;22.83;6.75;;;;;;;10.50;100.00;101545.38;5019973;28;20033;-73
2024/01/26 02:20:07;;;;;;;30.90;7.28;;;;;;;10.52;100.00;101540.38;5036093;28;20537;-73
2024/01/26 02:22:34;;;;;;;26.25;7.85;;;;;;;10.54;100.00;101539.28;5019762;28;20046;-73
2024/01/26 02:25:00;;;;;;;30.15;6.43;;;;;;;10.54;100.00;101542.06;5041261;28;20084;-73
2024/01/26 02:27:25;;;;;;;35.28;7.22;;;;;;;10.56;100.00;101551.81;5036462;28;20390;-73
2024/01/26 02:29:51;;;;;;;26.40;7.15;;;;;;;10.54;100.00;101551.22;5037200;28;20026;-73
2024/01/26 02:32:16;;;;;;;25.58;7.43;;;;;;;10.57;100.00;101547.91;5033681;28;20022;-73
2024/01/26 02:34:42;;;;;;;27.02;7.38;;;;;;;10.57;100.00;101549.84;5037173;28;20029;-73
2024/01/26 02:37:10;;;;;;;28.88;7.25;;;;;;;10.58;100.00;101551.50;5035993;28;20026;-73
2024/01/26 02:39:36;;;;;;;35.08;7.80;;;;;;;10.59;100.00;101544.88;5039381;28;20109;-73
2024/01/26 02:42:01;;;;;;;42.53;8.82;;;;;;;10.59;100.00;101545.72;5047234;28;20612;-73
2024/01/26 02:44:27;;;;;;;31.63;7.75;;;;;;;10.60;100.00;101552.94;5019055;28;20032;-73
2024/01/26 02:46:53;;;;;;;33.00;7.50;;;;;;;10.60;100.00;101552.94;5029804;28;20474;-73
2024/01/26 02:49:18;;;;;;;28.23;7.53;;;;;;;10.63;100.00;101555.16;5035718;28;20030;-73
2024/01/26 02:51:44;;;;;;;33.95;7.60;;;;;;;10.64;100.00;101547.66;5071989;28;20032;-73
2024/01/26 02:54:10;;;;;;;29.67;7.57;;;;;;;10.64;100.00;101547.66;5018783;28;20033;-73
2024/01/26 02:56:35;;;;;;;32.90;7.72;;;;;;;10.65;100.00;101541.00;5036887;28;20029;-73
2024/01/26 02:59:01;;;;;;;37.08;8.27;;;;;;;10.64;100.00;101540.19;5036324;28;20030;-73
2024/01/26 03:01:26;;;;;;;32.65;7.85;;;;;;;10.64;100.00;101531.84;5015943;28;20034;-73
2024/01/26 03:03:52;;;;;;;30.00;7.30;;;;;;;10.67;100.00;101531.31;5019009;28;20029;-74
2024/01/26 03:06:18;;;;;;;29.45;7.05;;;;;;;10.66;100.00;101529.63;5002694;28;20025;-73
2024/01/26 03:08:43;;;;;;;26.50;6.80;;;;;;;10.68;100.00;101529.34;5016853;28;20065;-73
2024/01/26 03:11:11;;;;;;;36.45;8.00;;;;;;;10.69;100.00;101529.06;5002763;28;20071;-73
2024/01/26 03:13:37;;;;;;;28.25;7.45;;;;;;;10.69;100.00;101540.19;5000873;28;20029;-73
2024/01/26 03:16:02;;;;;;;36.90;8.10;;;;;;;10.70;100.00;101541.03;5035041;28;20030;-73
2024/01/26 03:18:28;;;;;;;27.13;7.93;;;;;;;10.71;100.00;101540.75;5036478;28;20385;-73
2024/01/26 03:20:53;;;;;;;27.45;7.72;;;;;;;10.73;100.00;101546.06;5018753;28;20724;-73
2024/01/26 03:23:19;;;;;;;38.25;7.75;;;;;;;10.72;100.00;101547.16;5001905;28;20064;-73
2024/01/26 03:25:44;;;;;;;32.38;7.63;;;;;;;10.74;100.00;101544.94;5026694;28;20033;-73
2024/01/26 03:28:11;;;;;;;31.55;8.00;;;;;;;10.75;100.00;101549.38;5034971;28;20060;-73
2024/01/26 03:30:38;;;;;;;32.53;7.78;;;;;;;10.72;100.00;101542.41;5051236;28;20048;-73
2024/01/26 03:33:04;;;;;;;28.08;8.45;;;;;;;10.76;100.00;101539.97;5015395;28;20386;-73
2024/01/26 03:35:29;;;;;;;33.88;8.55;;;;;;;10.76;100.00;101536.34;5032094;28;20107;-73
2024/01/26 03:37:55;;;;;;;28.73;8.20;;;;;;;10.76;100.00;101544.69;5035129;28;20060;-73
2024/01/26 03:40:21;;;;;;;32.83;8.13;;;;;;;10.77;100.00;101530.50;5009019;28;20032;-73
2024/01/26 03:42:46;;;;;;;29.58;7.28;;;;;;;10.79;100.00;101544.97;5036076;28;20453;-73
2024/01/26 03:45:12;;;;;;;31.40;7.57;;;;;;;10.80;100.00;101532.75;5028815;28;20030;-73
2024/01/26 03:47:38;;;;;;;26.30;7.50;;;;;;;10.80;100.00;101521.63;5033851;28;20030;-73
2024/01/26 03:50:05;;;;;;;26.20;7.50;;;;;;;10.81;100.00;101542.78;5015390;28;20460;-73
2024/01/26 03:52:32;;;;;;;29.25;6.85;;;;;;;10.82;100.00;101544.44;5036248;28;20033;-73
2024/01/26 03:54:57;;;;;;;28.25;8.27;;;;;;;10.81;100.00;101545.56;5034719;28;20040;-73
2024/01/26 03:57:23;;;;;;;30.90;8.20;;;;;;;10.84;100.00;101553.34;5035656;28;20033;-73
2024/01/26 03:59:48;;;;;;;25.60;7.75;;;;;;;10.83;100.00;101556.38;5034259;28;20041;-73
2024/01/26 04:02:14;;;;;;;27.85;7.43;;;;;;;10.82;100.00;101568.59;5035531;28;20040;-73
2024/01/26 04:04:40;;;;;;;19.05;7.25;;;;;;;10.84;100.00;101564.47;5034733;28;20379;-73
2024/01/26 04:07:05;;;;;;;19.23;6.93;;;;;;;10.84;100.00;101563.63;5035579;28;20547;-74
2024/01/26 04:09:31;;;;;;;24.83;8.35;;;;;;;10.85;100.00;101566.13;5017806;28;20164;-73
2024/01/26 04:11:56;;;;;;;26.27;7.60;;;;;;;10.84;100.00;101564.47;5034572;28;20031;-73
2024/01/26 04:14:22;;;;;;;22.58;7.80;;;;;;;10.86;100.00;101555.84;5041458;28;20040;-73
2024/01/26 04:16:47;;;;;;;30.35;8.70;;;;;;;10.86;100.00;101553.88;5034625;28;20033;-74
2024/01/26 04:19:12;;;;;;;22.38;7.20;;;;;;;10.85;100.00;101557.78;5034196;28;20508;-73
2024/01/26 04:21:38;;;;;;;18.50;6.88;;;;;;;10.87;100.00;101571.41;5035355;28;20041;-73
2024/01/26 04:24:04;;;;;;;25.23;7.78;;;;;;;10.87;100.00;101575.03;5014506;28;20468;-73
2024/01/26 04:26:31;;;;;;;21.80;8.00;;;;;;;10.88;100.00;101575.84;5026971;28;20517;-73
2024/01/26 04:28:56;;;;;;;18.63;6.93;;;;;;;10.89;100.00;101561.72;5035250;28;20037;-73
2024/01/26 04:31:23;;;;;;;20.98;7.05;;;;;;;10.91;100.00;101573.38;5035285;28;20033;-73
2024/01/26 04:33:48;;;;;;;27.75;7.63;;;;;;;10.91;100.00;101570.59;5048078;28;20029;-73
2024/01/26 04:36:14;;;;;;;17.15;6.55;;;;;;;10.92;100.00;101577.84;5033784;28;20044;-73
2024/01/26 04:38:40;;;;;;;15.73;7.20;;;;;;;10.92;100.00;101575.06;5033781;28;20046;-73
2024/01/26 04:41:05;;;;;;;14.88;6.05;;;;;;;10.93;100.00;101570.34;5025126;28;20030;-73
2024/01/26 04:43:31;;;;;;;13.32;6.75;;;;;;;10.94;100.00;101585.88;5038953;28;20032;-73
2024/01/26 04:45:56;;;;;;;17.85;6.22;;;;;;;10.93;100.00;101584.22;5030942;28;20021;-73
2024/01/26 04:48:22;;;;;;;15.55;6.18;;;;;;;10.92;100.00;101575.06;5039228;28;20110;-73
2024/01/26 04:50:47;;;;;;;13.27;6.10;;;;;;;10.94;100.00;101592.28;5039290;28;20549;-73
2024/01/26 04:53:15;;;;;;;16.98;6.68;;;;;;;10.93;100.00;101585.06;5024298;28;20088;-73
2024/01/26 04:55:41;;;;;;;10.25;6.05;;;;;;;10.95;100.00;101582.03;5038087;28;20033;-73
2024/01/26 04:58:06;;;;;;;12.73;5.93;;;;;;;10.94;100.00;101583.94;5029669;28;20390;-73
2024/01/26 05:00:32;;;;;;;13.23;6.20;;;;;;;10.93;100.00;101584.22;5038563;28;20033;-73
2024/01/26 05:02:57;;;;;;;11.60;6.03;;;;;;;10.96;100.00;101583.69;5037851;28;20032;-73
2024/01/26 05:05:23;;;;;;;12.60;6.55;;;;;;;10.95;100.00;101585.63;5037644;28;20033;-73
2024/01/26 05:07:48;;;;;;;10.20;5.32;;;;;;;10.95;100.00;101582.84;5038906;28;20033;-73
2024/01/26 05:10:15;;;;;;;10.85;5.80;;;;;;;10.96;100.00;101586.47;5037634;28;20072;-73
2024/01/26 05:12:41;;;;;;;10.23;5.30;;;;;;;10.94;100.00;101574.78;5037672;28;20041;-73
2024/01/26 05:15:10;;;;;;;10.27;4.90;;;;;;;10.98;100.00;101586.19;5019661;28;20034;-73
2024/01/26 05:17:35;;;;;;;11.48;5.50;;;;;;;10.99;100.00;101587.88;5020732;28;20040;-73
2024/01/26 05:20:01;;;;;;;11.18;4.75;;;;;;;10.99;100.00;101594.25;5019853;28;20549;-73
2024/01/26 05:22:27;;;;;;;7.85;4.80;;;;;;;11.00;100.00;101589.53;5020924;28;20060;-74
2024/01/26 05:24:52;;;;;;;7.55;5.00;;;;;;;10.99;100.00;101585.91;5037447;28;20037;-73
2024/01/26 05:27:17;;;;;;;7.35;4.80;;;;;;;10.98;100.00;101587.03;5001472;28;20021;-73
2024/01/26 05:29:43;;;;;;;9.25;4.93;;;;;;;11.00;100.00;101586.75;5019491;28;20029;-73
2024/01/26 05:32:09;;;;;;;6.22;4.18;;;;;;;10.99;100.00;101587.88;5034847;28;20029;-73
2024/01/26 05:34:35;;;;;;;7.63;4.00;;;;;;;10.99;100.00;101585.91;5019618;28;20060;-73
2024/01/26 05:37:01;;;;;;;6.88;4.10;;;;;;;10.99;100.00;101596.22;5034005;28;20111;-73
2024/01/26 05:39:29;;;;;;;5.95;4.18;;;;;;;10.99;100.00;101597.03;5018793;28;20030;-73
2024/01/26 05:41:55;;;;;;;7.65;4.35;;;;;;;10.97;100.00;101604.81;5006802;28;20034;-73
2024/01/26 05:44:20;;;;;;;7.47;4.85;;;;;;;10.99;100.00;101605.38;5021081;28;20036;-73
2024/01/26 05:46:46;;;;;;;6.20;4.25;;;;;;;11.00;100.00;101611.78;4996517;28;20032;-73
2024/01/26 05:49:11;;;;;;;6.30;4.47;;;;;;;10.99;100.00;101602.59;5020679;28;20033;-73
2024/01/26 05:51:37;;;;;;;5.25;4.05;;;;;;;10.99;100.00;101607.31;5040930;28;20076;-73
2024/01/26 05:54:03;;;;;;;4.88;3.80;;;;;;;10.98;100.00;101608.41;5019561;28;20040;-74
2024/01/26 05:56:29;;;;;;;4.85;3.83;;;;;;;11.00;100.00;101606.22;5000804;28;20034;-73
2024/01/26 05:58:54;;;;;;;4.57;3.75;;;;;;;11.00;100.00;101614.56;5051540;28;20026;-73
2024/01/26 06:01:20;;;;;;;7.60;4.30;;;;;;;10.99;100.00;101622.06;5037872;28;20033;-73
2024/01/26 06:03:45;;;;;;;7.80;4.82;;;;;;;10.99;100.00;101633.19;5037943;28;20034;-74
2024/01/26 06:06:11;;;;;;;8.50;4.40;;;;;;;11.00;100.00;101629.28;5036779;28;20021;-73
2024/01/26 06:08:36;;;;;;;5.47;3.85;;;;;;;11.02;100.00;101634.59;5020268;28;20036;-73
2024/01/26 06:11:03;;;;;;;5.70;3.72;;;;;;;11.02;100.00;101627.06;5036687;28;20033;-73
2024/01/26 06:13:28;;;;;;;6.82;4.07;;;;;;;11.00;100.00;101628.44;5052713;28;20038;-74
2024/01/26 06:15:54;;;;;;;8.55;4.30;;;;;;;11.01;100.00;101636.53;5051997;28;20025;-73
2024/01/26 06:18:19;;;;;;;4.93;3.63;;;;;;;11.02;100.00;101638.19;5037664;28;20033;-73
2024/01/26 06:20:44;;;;;;;7.13;3.78;;;;;;;11.03;100.00;101639.03;5028517;28;20037;-74
2024/01/26 06:23:10;;;;;;;5.88;3.80;;;;;;;11.04;100.00;101640.72;5035994;28;20076;-73
2024/01/26 06:25:35;;;;;;;3.55;3.20;;;;;;;11.03;100.00;101659.34;5002156;28;20029;-73
2024/01/26 06:28:01;;;;;;;4.95;3.65;;;;;;;11.03;100.00;101656.56;5051919;28;20488;-73
2024/01/26 06:30:26;;;;;;;6.30;3.15;;;;;;;11.04;100.00;101654.63;5020414;28;20041;-73
2024/01/26 06:32:52;;;;;;;6.00;3.35;;;;;;;11.03;100.00;101666.81;5034611;28;20033;-73
2024/01/26 06:35:17;;;;;;;7.78;3.20;;;;;;;11.01;100.00;101669.06;5036397;28;20056;-73
2024/01/26 06:37:43;;;;;;;5.00;3.28;;;;;;;11.04;100.00;101680.47;5036058;28;20171;-73
2024/01/26 06:40:12;;;;;;;5.80;3.40;;;;;;;11.05;100.00;101684.06;5036046;28;20025;-73
2024/01/26 06:42:40;;;;;;;7.28;3.50;;;;;;;11.07;100.00;101684.66;5037366;28;20029;-73
2024/01/26 06:45:13;;;;;;;7.28;3.22;;;;;;;11.07;100.00;101698.56;5029443;28;20497;-73
2024/01/26 06:47:38;;;;;;;6.35;3.30;;;;;;;11.07;100.00;101707.72;5018754;28;20470;-73
2024/01/26 06:50:04;;;;;;;6.13;3.00;;;;;;;11.07;100.00;101718.84;5035921;28;20030;-74
2024/01/26 06:52:31;;;;;;;3.90;2.92;;;;;;;11.07;100.00;101732.75;5022384;28;20033;-73
2024/01/26 06:54:56;;;;;;;7.35;3.35;;;;;;;11.06;100.00;101735.78;5035923;28;20029;-73
2024/01/26 06:57:22;;;;;;;4.53;3.10;;;;;;;11.09;100.00;101730.53;5035622;28;20034;-73
2024/01/26 06:59:47;;;;;;;5.00;2.65;;;;;;;11.09;100.00;101729.72;5035146;28;20033;-73
2024/01/26 07:02:13;;;;;;;3.17;2.20;;;;;;;11.10;100.00;101723.88;5052201;28;20033;-73
2024/01/26 07:04:38;;;;;;;4.30;2.50;;;;;;;11.12;100.00;101737.50;5036884;28;20422;-73
2024/01/26 07:07:03;;;;;;;5.28;2.13;;;;;;;11.12;100.00;101734.72;5035394;28;20386;-73
2024/01/26 07:09:29;;;;;;;6.25;2.00;;;;;;;11.12;100.00;101743.91;5036661;28;20033;-73
2024/01/26 07:11:55;;;;;;;5.22;2.22;;;;;;;11.11;100.00;101752.50;5035319;28;20021;-73
2024/01/26 07:14:20;;;;;;;3.90;1.75;;;;;;;11.12;100.00;101756.97;5036403;28;20036;-73
2024/01/26 07:16:48;;;;;;;3.05;1.80;;;;;;;11.10;100.00;101767.53;5040567;28;20046;-73
2024/01/26 07:19:14;;;;;;;4.00;2.03;;;;;;;11.09;100.00;101793.66;5035371;28;20495;-73
2024/01/26 07:21:40;;;;;;;8.18;2.10;;;;;;;11.08;100.00;101830.88;5035108;28;20115;-73
2024/01/26 07:24:05;;;;;;;12.98;1.92;;;;;;;11.07;100.00;101841.16;5018453;28;20041;-73
2024/01/26 07:26:31;;;;;;;9.93;2.08;;;;;;;11.05;100.00;101836.97;4986172;28;20606;-73
2024/01/26 07:28:56;;;;;;;14.80;1.63;;;;;;;10.90;100.00;101844.09;5036108;28;20029;-73
2024/01/26 07:31:22;;;;;;;7.78;1.52;;;;;;;10.80;100.00;101846.75;5036144;28;20033;-73
2024/01/26 07:33:48;;;;;;;10.02;1.27;;;;;;;10.71;100.00;101854.72;5032240;28;20038;-73
2024/01/26 07:36:13;;;;;;;10.70;1.55;;;;;;;10.70;100.00;101841.13;5034909;28;20033;-73
2024/01/26 07:38:39;;;;;;;12.68;1.58;;;;;;;10.63;100.00;101838.53;5034882;28;20022;-73
2024/01/26 07:41:04;;;;;;;9.07;1.65;;;;;;;10.57;100.00;101852.63;5043693;28;20037;-73
2024/01/26 07:43:30;;;;;;;14.35;1.88;;;;;;;10.50;100.00;101836.16;5034876;28;20029;-73
2024/01/26 07:45:58;;;;;;;15.07;1.40;;;;;;;10.38;100.00;101846.59;5026646;28;20021;-73
2024/01/26 07:48:24;;;;;;;12.63;1.98;;;;;;;10.30;100.00;101856.22;5015624;28;20030;-73
2024/01/26 07:50:50;;;;;;;11.55;1.52;;;;;;;10.25;100.00;101873.63;5066854;28;20091;-73
2024/01/26 07:53:15;;;;;;;16.27;2.85;;;;;;;10.20;100.00;101881.06;5001376;28;20079;-73
2024/01/26 07:55:41;;;;;;;6.47;1.35;;;;;;;10.20;100.00;101878.28;5017157;28;20466;-73
2024/01/26 07:58:06;;;;;;;12.82;3.20;;;;;;;10.12;100.00;101875.97;5036252;28;20030;-73
2024/01/26 08:00:32;;;;;;;16.77;2.70;;;;;;;10.12;100.00;101864.84;5035134;28;20036;-73
2024/01/26 08:02:58;;;;;;;14.07;2.28;;;;;;;10.08;100.00;101861.75;5035543;28;20025;-73
2024/01/26 08:05:24;;;;;;;12.25;2.28;;;;;;;10.05;100.00;101879.75;5033849;28;20061;-73
2024/01/26 08:07:49;;;;;;;16.95;2.40;;;;;;;10.01;100.00;101878.59;5017991;28;20048;-73
2024/01/26 08:10:15;;;;;;;13.25;2.78;;;;;;;10.04;100.00;101889.19;5067611;28;20036;-73
2024/01/26 08:12:40;;;;;;;17.13;2.95;;;;;;;9.99;100.00;101883.56;5001690;28;20804;-73
2024/01/26 08:15:06;;;;;;;11.60;2.60;;;;;;;9.98;100.00;101893.00;5067458;28;20029;-73
2024/01/26 08:17:32;;;;;;;14.52;2.65;;;;;;;10.01;100.00;101903.56;4990566;28;20132;-73
2024/01/26 08:19:58;;;;;;;11.93;2.40;;;;;;;10.00;100.00;101910.22;5001496;28;20026;-73
2024/01/26 08:22:25;;;;;;;13.18;2.63;;;;;;;10.01;100.00;101913.84;5033134;28;20037;-73
2024/01/26 08:24:51;;;;;;;16.33;2.30;;;;;;;9.98;100.00;101917.97;5034876;28;20112;-73
2024/01/26 08:27:16;;;;;;;13.77;2.28;;;;;;;9.99;100.00;101919.63;5035572;28;20087;-73
2024/01/26 08:29:42;;;;;;;18.40;3.17;;;;;;;9.98;100.00;101931.00;5034334;28;20037;-73
2024/01/26 08:32:07;;;;;;;14.35;3.00;;;;;;;9.98;100.00;101934.63;5033174;28;20029;-73
2024/01/26 08:34:38;;;;;;;13.52;2.67;;;;;;;9.97;100.00;101932.94;5034029;28;20022;-73
2024/01/26 08:37:04;;;;;;;19.52;2.80;;;;;;;9.99;100.00;101943.78;5033886;28;20033;-73
2024/01/26 08:39:30;;;;;;;23.00;2.88;;;;;;;9.97;100.00;101938.50;5002981;28;20083;-73
2024/01/26 08:41:58;;;;;;;19.70;3.17;;;;;;;9.98;100.00;101940.16;5041621;28;20033;-73
2024/01/26 08:44:24;;;;;;;14.55;2.60;;;;;;;9.98;100.00;101944.88;5034541;28;20101;-73
2024/01/26 08:46:49;;;;;;;18.52;3.08;;;;;;;9.99;100.00;101954.88;5026638;28;20029;-73
2024/01/26 08:49:15;;;;;;;20.55;2.78;;;;;;;9.98;100.00;101945.72;5035073;28;20025;-73
2024/01/26 08:51:41;;;;;;;19.33;2.97;;;;;;;10.00;100.00;101951.00;5037942;28;20029;-74
2024/01/26 08:54:07;;;;;;;17.13;2.90;;;;;;;10.01;100.00;101956.31;5033638;28;20068;-73
2024/01/26 08:56:39;;;;;;;21.80;3.10;;;;;;;9.96;100.00;101953.44;5030511;28;20038;-73
2024/01/26 08:59:06;;;;;;;24.77;3.20;;;;;;;10.00;100.00;101968.53;5044831;28;20037;-74
2024/01/26 09:01:38;;;;;;;20.70;3.30;;;;;;;9.97;100.00;101963.47;5033872;28;20025;-73
2024/01/26 09:04:08;;;;;;;22.10;2.90;;;;;;;9.95;100.00;101965.66;5018384;28;20041;-73
2024/01/26 09:06:37;;;;;;;23.42;3.63;;;;;;;9.94;100.00;101972.28;5035215;28;20040;-73
2024/01/26 09:09:03;;;;;;;23.67;3.35;;;;;;;9.96;100.00;101977.59;5001374;28;20033;-73
2024/01/26 09:11:29;;;;;;;29.30;3.67;;;;;;;9.95;100.00;101979.53;5017512;28;20497;-73
2024/01/26 09:13:56;;;;;;;30.48;3.63;;;;;;;9.94;100.00;101993.66;5033804;28;20025;-73
2024/01/26 09:16:22;;;;;;;32.72;3.85;;;;;;;9.92;100.00;101996.69;5017622;28;20048;-73
2024/01/26 09:18:47;;;;;;;21.17;4.05;;;;;;;9.92;100.00;102001.38;5027134;28;20034;-73
2024/01/26 09:21:12;;;;;;;24.67;3.42;;;;;;;9.92;100.00;102002.25;5031186;28;20057;-73
2024/01/26 09:23:38;;;;;;;28.17;3.67;;;;;;;9.96;100.00;101992.31;4998684;28;20044;-73
2024/01/26 09:26:04;;;;;;;30.10;4.07;;;;;;;9.97;100.00;101996.78;5029980;28;20381;-73
2024/01/26 09:28:29;;;;;;;28.38;5.57;;;;;;;9.98;100.00;102011.50;5014727;28;20083;-73
2024/01/26 09:30:55;;;;;;;28.23;4.10;;;;;;;9.98;100.00;102012.34;5034422;28;20033;-73
2024/01/26 09:33:20;;;;;;;30.13;4.20;;;;;;;9.95;100.00;102018.38;5049824;28;20037;-73
2024/01/26 09:35:47;;;;;;;23.60;3.95;;;;;;;9.96;100.00;102022.84;5034631;28;20037;-74
2024/01/26 09:38:12;;;;;;;31.02;4.00;;;;;;;9.98;100.00;102015.09;5034498;28;20104;-74
2024/01/26 09:40:39;;;;;;;31.52;4.32;;;;;;;10.00;100.00;102026.81;5039337;28;20045;-74
2024/01/26 09:43:06;;;;;;;28.58;4.38;;;;;;;10.02;100.00;102035.69;5018481;28;20378;-73
2024/01/26 09:45:31;;;;;;;30.17;4.13;;;;;;;10.00;100.00;102032.34;5033443;28;20025;-73
2024/01/26 09:47:57;;;;;;;29.83;4.75;;;;;;;10.01;100.00;102038.75;4987387;28;20072;-73
2024/01/26 09:50:22;;;;;;;31.77;3.97;;;;;;;10.01;100.00;102039.56;5020523;28;20037;-73
2024/01/26 09:52:49;;;;;;;30.73;4.22;;;;;;;10.03;100.00;102037.41;5019958;28;20025;-73
2024/01/26 09:55:15;;;;;;;29.90;4.25;;;;;;;10.02;100.00;102055.13;5019106;28;20028;-73
2024/01/26 09:57:41;;;;;;;26.30;4.70;;;;;;;10.06;100.00;102053.53;5036859;28;20045;-73
2024/01/26 10:00:10;;;;;;;29.40;3.88;;;;;;;10.11;100.00;102072.19;5022755;28;20430;-73
2024/01/26 10:02:37;;;;;;;28.48;4.13;;;;;;;10.12;100.00;102075.84;5003452;28;20421;-73
2024/01/26 10:05:03;;;;;;;26.20;3.72;;;;;;;10.16;100.00;102077.00;5016776;28;20048;-73
2024/01/26 10:07:28;;;;;;;34.50;5.35;;;;;;;10.14;100.00;102079.19;5020085;28;20022;-73
2024/01/26 10:09:54;;;;;;;27.33;4.18;;;;;;;10.13;100.00;102074.72;5020166;28;20433;-73
2024/01/26 10:12:20;;;;;;;32.78;4.80;;;;;;;10.19;100.00;102085.66;5034767;28;20500;-73
2024/01/26 10:14:46;;;;;;;36.30;5.13;;;;;;;10.19;100.00;102105.09;5051872;28;20033;-73
2024/01/26 10:17:20;;;;;;;26.83;3.92;;;;;;;10.20;100.00;102092.06;5037467;28;20038;-73
2024/01/26 10:19:46;;;;;;;39.50;5.10;;;;;;;10.20;100.00;102080.97;5002205;28;20092;-73
2024/01/26 10:22:11;;;;;;;31.60;4.75;;;;;;;10.31;100.00;102090.31;5036278;28;20037;-73
2024/01/26 10:24:37;;;;;;;30.98;4.18;;;;;;;10.31;100.00;102098.63;5019757;28;20467;-73
2024/01/26 10:27:02;;;;;;;29.65;4.30;;;;;;;10.38;100.00;102111.25;5036220;28;20504;-73
2024/01/26 10:29:28;;;;;;;29.88;3.67;;;;;;;10.43;100.00;102122.44;5036105;28;20656;-73
2024/01/26 10:31:54;;;;;;;35.60;4.65;;;;;;;10.51;100.00;102119.25;5034426;28;20501;-73
2024/01/26 10:34:19;;;;;;;30.00;4.72;;;;;;;10.58;100.00;102126.56;5035431;28;20045;-73
2024/01/26 10:36:46;;;;;;;21.00;3.47;;;;;;;10.63;100.00;102119.13;5036857;28;20056;-73
2024/01/26 10:39:23;;;;;;;29.63;4.50;;;;;;;10.74;100.00;102132.09;5034096;28;20095;-73
2024/01/26 10:41:52;;;;;;;24.17;3.92;;;;;;;10.81;100.00;102131.91;5020138;28;20029;-73
2024/01/26 10:44:17;;;;;;;28.10;4.50;;;;;;;10.83;100.00;102135.25;5001867;28;20108;-73
2024/01/26 10:46:43;;;;;;;27.83;4.35;;;;;;;10.86;100.00;102134.75;5002993;28;20105;-73
2024/01/26 10:49:09;;;;;;;24.67;3.40;;;;;;;10.90;100.00;102147.06;4990287;28;20111;-74
2024/01/26 10:51:37;;;;;;;24.50;4.65;;;;;;;10.85;100.00;102154.47;5026488;28;20036;-73
2024/01/26 10:54:12;;;;;;;24.08;4.38;;;;;;;10.92;100.00;102166.22;5052264;28;20041;-73
2024/01/26 10:56:41;;;;;;;29.45;5.30;;;;;;;10.86;100.00;102176.44;5013575;28;20032;-74
2024/01/26 10:59:09;;;;;;;32.22;4.35;;;;;;;10.86;100.00;102173.66;5052137;28;20026;-73
2024/01/26 11:01:35;;;;;;;27.35;4.00;;;;;;;10.83;100.00;102174.16;5016395;28;20037;-73
2024/01/26 11:04:08;;;;;;;32.00;4.57;;;;;;;10.82;100.00;102166.09;5003237;28;20116;-73
2024/01/26 11:06:37;;;;;;;31.63;4.13;;;;;;;10.82;100.00;102174.44;5017647;28;20029;-73